createdAt,value
2019-04-06T00:02:36.025Z,20.80
2019-04-06T00:07:38.390Z,21.00
2019-04-06T00:12:40.744Z,21.68
2019-04-06T00:17:43.089Z,22.05
2019-04-06T00:22:45.364Z,20.73
2019-04-06T00:27:47.734Z,21.43
2019-04-06T00:32:57.538Z,21.73
2019-04-06T00:38:00.179Z,20.60
2019-04-06T00:43:02.462Z,21.63
2019-04-06T00:48:04.754Z,21.07
2019-04-06T00:53:07.070Z,20.43
2019-04-06T00:58:09.388Z,21.37
2019-04-06T01:03:11.744Z,22.00
2019-04-06T01:08:14.052Z,20.85
2019-04-06T01:13:16.420Z,20.17
2019-04-06T01:18:18.784Z,20.72
2019-04-06T01:23:21.054Z,21.23
2019-04-06T01:28:23.337Z,19.60
2019-04-06T01:33:25.702Z,19.80
2019-04-06T01:38:27.987Z,19.20
2019-04-06T01:43:30.295Z,18.13
2019-04-06T01:48:32.547Z,19.17
2019-04-06T01:53:34.839Z,18.33
2019-04-06T01:58:37.196Z,19.37
2019-04-06T02:03:39.512Z,18.73
2019-04-06T02:08:41.848Z,19.00
2019-04-06T02:13:44.427Z,19.67
2019-04-06T02:18:46.714Z,19.33
2019-04-06T02:23:49.039Z,19.53
2019-04-06T02:28:51.315Z,19.52
2019-04-06T02:33:55.231Z,19.63
2019-04-06T02:39:08.490Z,20.20
2019-04-06T02:44:10.789Z,18.87
2019-04-06T02:49:13.109Z,17.90
2019-04-06T02:54:15.404Z,19.17
2019-04-06T02:59:17.886Z,18.20
2019-04-06T03:04:20.274Z,17.50
2019-04-06T03:09:22.558Z,18.07
2019-04-06T03:14:25.093Z,17.97
2019-04-06T03:19:27.476Z,17.93
2019-04-06T03:24:29.746Z,17.23
2019-04-06T03:29:32.000Z,17.10
2019-04-06T03:34:34.344Z,17.07
2019-04-06T03:39:36.596Z,17.20
2019-04-06T03:44:38.883Z,17.50
2019-04-06T03:49:41.173Z,17.40
2019-04-06T03:54:43.445Z,16.83
2019-04-06T03:59:45.743Z,16.97
2019-04-06T04:04:48.033Z,16.37
2019-04-06T04:09:50.302Z,17.07
2019-04-06T04:14:52.763Z,18.00
2019-04-06T04:19:55.059Z,16.87
2019-04-06T04:24:57.390Z,17.97
2019-04-06T04:29:59.679Z,19.77
2019-04-06T04:35:02.065Z,17.00
2019-04-06T04:40:05.516Z,20.37
2019-04-06T04:45:08.070Z,21.20
2019-04-06T04:50:10.613Z,20.50
2019-04-06T04:55:12.952Z,19.00
2019-04-06T05:00:15.737Z,18.27
2019-04-06T05:05:18.078Z,17.53
2019-04-06T05:10:20.688Z,18.50
2019-04-06T05:15:41.714Z,16.17
2019-04-06T05:20:43.988Z,16.80
2019-04-06T05:25:46.290Z,15.83
2019-04-06T05:30:48.577Z,16.33
2019-04-06T05:35:50.895Z,15.70
2019-04-06T05:40:53.233Z,16.47
2019-04-06T05:45:55.513Z,16.90
2019-04-06T05:50:58.006Z,15.53
2019-04-06T05:56:00.458Z,15.80
2019-04-06T06:01:04.085Z,16.63
2019-04-06T06:06:06.854Z,15.60
2019-04-06T06:11:09.200Z,17.05
2019-04-06T06:16:12.229Z,16.00
2019-04-06T06:21:14.722Z,17.80
2019-04-06T06:26:17.015Z,17.77
2019-04-06T06:31:19.324Z,16.53
2019-04-06T06:36:21.629Z,17.30
2019-04-06T06:41:23.867Z,16.97
2019-04-06T06:46:26.179Z,18.23
2019-04-06T06:51:28.661Z,16.50
2019-04-06T06:56:31.151Z,17.98
2019-04-06T07:01:33.543Z,17.60
2019-04-06T07:06:35.966Z,16.97
2019-04-06T07:11:38.318Z,17.40
2019-04-06T07:16:40.614Z,16.47
2019-04-06T07:21:42.959Z,15.07
2019-04-06T07:26:45.252Z,15.58
2019-04-06T07:31:47.538Z,15.65
2019-04-06T07:36:49.932Z,15.23
2019-04-06T07:41:52.222Z,15.00
2019-04-06T07:46:54.577Z,16.60
2019-04-06T07:51:56.965Z,15.72
2019-04-06T07:56:59.330Z,16.37
2019-04-06T08:02:01.899Z,16.50
2019-04-06T08:07:04.244Z,17.65
2019-04-06T08:12:06.708Z,17.90
2019-04-06T08:17:09.109Z,19.20
2019-04-06T08:22:11.492Z,20.82
2019-04-06T08:27:13.878Z,21.65
2019-04-06T08:32:16.578Z,23.42
2019-04-06T08:37:18.865Z,22.97
2019-04-06T08:42:21.239Z,21.62
2019-04-06T08:47:24.533Z,22.62
2019-04-06T08:52:26.811Z,22.00
2019-04-06T08:57:29.296Z,22.58
2019-04-06T09:02:31.861Z,22.45
2019-04-06T09:07:34.193Z,23.73
2019-04-06T09:12:37.092Z,22.95
2019-04-06T09:17:39.499Z,23.98
2019-04-06T09:22:42.012Z,23.77
2019-04-06T09:27:44.648Z,23.22
2019-04-06T09:32:47.027Z,23.32
2019-04-06T09:37:49.394Z,23.70
2019-04-06T09:42:51.752Z,24.98
2019-04-06T09:47:55.735Z,25.92
2019-04-06T09:53:16.487Z,24.60
2019-04-06T09:58:37.207Z,26.90
2019-04-06T10:03:41.214Z,24.63
2019-04-06T10:09:01.594Z,28.70
2019-04-06T10:14:08.115Z,27.85
2019-04-06T10:19:28.423Z,26.27
2019-04-06T10:24:38.661Z,28.60
2019-04-06T10:29:50.159Z,26.37
2019-04-06T10:34:56.694Z,27.98
2019-04-06T10:40:00.707Z,26.93
2019-04-06T10:45:17.767Z,30.25
2019-04-06T10:50:38.464Z,28.02
2019-04-06T10:55:58.754Z,29.57
2019-04-06T11:01:19.454Z,27.42
2019-04-06T11:06:35.434Z,29.90
2019-04-06T11:11:45.687Z,29.50
2019-04-06T11:16:58.740Z,30.92
2019-04-06T11:22:08.715Z,31.15
2019-04-06T11:27:29.337Z,30.45
2019-04-06T11:32:50.054Z,29.63
2019-04-06T11:37:54.347Z,27.57
2019-04-06T11:43:05.093Z,27.75
2019-04-06T11:48:12.264Z,22.73
2019-04-06T11:53:18.969Z,19.57
2019-04-06T11:58:31.907Z,24.02
2019-04-06T12:03:35.859Z,21.82
2019-04-06T12:08:58.512Z,19.87
2019-04-06T12:14:03.134Z,19.48
2019-04-06T12:19:09.860Z,17.32
2019-04-06T12:24:16.773Z,18.98
2019-04-06T12:29:21.174Z,14.23
2019-04-06T12:34:41.797Z,15.18
2019-04-06T12:40:02.513Z,24.15
2019-04-06T12:45:10.333Z,25.30
2019-04-06T12:50:14.324Z,25.40
2019-04-06T12:55:34.666Z,24.27
2019-04-06T13:00:52.635Z,22.60
2019-04-06T13:06:10.620Z,24.18
2019-04-06T13:11:14.839Z,22.58
2019-04-06T13:16:21.728Z,21.45
2019-04-06T13:26:35.153Z,20.43
2019-04-06T13:31:41.991Z,21.25
2019-04-06T13:36:49.079Z,20.72
2019-04-06T13:42:02.322Z,21.15
2019-04-06T13:47:22.999Z,20.07
2019-04-06T13:52:27.550Z,20.75
2019-04-06T13:57:43.778Z,20.72
2019-04-06T14:02:51.276Z,19.27
2019-04-06T14:07:58.118Z,19.73
2019-04-06T14:13:05.088Z,18.73
2019-04-06T14:18:21.287Z,19.75
2019-04-06T14:23:25.208Z,18.15
2019-04-06T14:28:29.143Z,17.50
2019-04-06T14:33:42.224Z,16.93
2019-04-06T14:38:46.150Z,16.42
2019-04-06T14:44:08.215Z,16.43
2019-04-06T14:49:27.475Z,16.82
2019-04-06T14:54:20.622Z,16.60
2019-04-06T14:59:30.214Z,21.05
2019-04-06T15:04:52.680Z,19.60
2019-04-06T15:10:02.336Z,19.67
2019-04-06T15:15:07.662Z,19.45
2019-04-06T15:20:14.972Z,19.50
2019-04-06T15:25:19.073Z,19.02
2019-04-06T15:30:38.274Z,19.27
2019-04-06T15:36:00.504Z,20.90
2019-04-06T15:41:19.512Z,19.32
2019-04-06T15:46:41.973Z,22.42
2019-04-06T15:52:11.037Z,22.10
2019-04-06T15:57:17.069Z,20.60
2019-04-06T16:02:23.637Z,21.62
2019-04-06T16:07:33.381Z,21.73
2019-04-06T16:12:35.946Z,23.47
2019-04-06T16:17:39.899Z,22.48
2019-04-06T16:22:46.677Z,20.30
2019-04-06T16:27:50.699Z,21.82
2019-04-06T16:33:08.796Z,23.18
2019-04-06T16:38:24.725Z,22.32
2019-04-06T16:43:37.813Z,22.15
2019-04-06T16:48:44.613Z,22.90
2019-04-06T16:53:57.927Z,21.35
2019-04-06T16:59:02.291Z,21.60
2019-04-06T17:04:09.269Z,21.45
2019-04-06T17:14:36.064Z,21.52
2019-04-06T17:19:46.323Z,21.90
2019-04-06T17:25:02.925Z,22.90
2019-04-06T17:30:24.774Z,22.98
2019-04-06T17:35:34.671Z,21.10
2019-04-06T17:40:55.113Z,21.17
2019-04-06T17:46:02.338Z,22.17
2019-04-06T17:51:24.484Z,22.50
2019-04-06T17:56:28.838Z,20.57
2019-04-06T18:01:53.354Z,20.90
2019-04-06T18:07:09.409Z,19.77
2019-04-06T18:12:13.684Z,20.07
2019-04-06T18:17:16.091Z,18.80
2019-04-06T18:22:18.438Z,23.05
2019-04-06T18:27:20.833Z,33.40
2019-04-06T18:32:40.522Z,25.00
2019-04-06T18:37:44.721Z,18.23
2019-04-06T18:42:47.424Z,17.70
2019-04-06T18:47:50.223Z,32.10
2019-04-06T18:52:53.145Z,35.23
2019-04-06T18:57:55.942Z,27.60
2019-04-06T19:03:10.594Z,23.30
2019-04-06T19:08:04.536Z,23.80
2019-04-06T19:13:07.193Z,18.83
2019-04-06T19:18:10.040Z,17.80
2019-04-06T19:23:12.437Z,20.03
2019-04-06T19:28:14.939Z,17.43
2019-04-06T19:33:25.003Z,21.73
2019-04-06T19:38:22.383Z,23.43
2019-04-06T19:43:32.475Z,22.53
2019-04-06T19:48:34.966Z,23.90
2019-04-06T19:53:37.872Z,23.10
2019-04-06T19:58:40.327Z,23.33
2019-04-06T20:03:42.773Z,20.47
2019-04-06T20:08:45.139Z,25.07
2019-04-06T20:13:47.964Z,33.40
2019-04-06T20:18:50.386Z,32.63
2019-04-06T20:23:54.000Z,33.80
2019-04-06T20:28:56.572Z,23.80
2019-04-06T20:33:59.057Z,22.30
2019-04-06T20:39:01.960Z,23.23
2019-04-06T20:44:04.543Z,25.00
2019-04-06T20:49:07.628Z,25.00
2019-04-06T20:54:10.582Z,23.97
2019-04-06T20:59:13.152Z,23.20
2019-04-06T21:04:15.631Z,22.53
2019-04-06T21:09:18.156Z,23.87
2019-04-06T21:14:20.546Z,22.57
2019-04-06T21:19:23.068Z,23.57
2019-04-06T21:24:26.170Z,21.70
2019-04-06T21:29:28.929Z,24.00
2019-04-06T21:34:31.277Z,23.13
2019-04-06T21:39:33.621Z,24.13
2019-04-06T21:44:36.865Z,22.50
2019-04-06T21:49:39.238Z,23.13
2019-04-06T21:54:42.037Z,22.80
2019-04-06T21:59:44.915Z,21.90
2019-04-06T22:04:47.346Z,21.57
2019-04-06T22:09:50.424Z,22.20
2019-04-06T22:14:52.973Z,21.70
2019-04-06T22:19:55.255Z,23.07
2019-04-06T22:24:57.610Z,25.80
2019-04-06T22:30:00.285Z,22.83
2019-04-06T22:35:03.401Z,21.03
2019-04-06T22:40:06.020Z,20.43
2019-04-06T22:45:10.676Z,21.10
2019-04-06T22:50:13.155Z,21.50
2019-04-06T22:55:15.470Z,22.73
2019-04-06T23:00:19.798Z,22.07
2019-04-06T23:05:23.728Z,23.10
2019-04-06T23:10:26.009Z,23.27
2019-04-06T23:15:28.932Z,23.20
2019-04-06T23:20:31.387Z,23.37
2019-04-06T23:25:34.933Z,23.40
2019-04-06T23:30:37.573Z,22.00
2019-04-06T23:35:40.029Z,21.70
2019-04-06T23:40:42.336Z,21.00
2019-04-06T23:45:44.777Z,21.10
2019-04-06T23:50:47.476Z,20.60
2019-04-06T23:55:49.928Z,21.67
